Time;durP1;ratioP1;P1;durP2;ratioP2;P2;SDS_P1;SDS_P2;PMS_P1;PMS_P2;Temp;Humidity;BMP_temperature;BMP_pressure;BME280_temperature;BME280_humidity;BME280_pressure;Samples;Min_cycle;Max_cycle;Signal;HPM_P1;HPM_P2
2022/10/14 00:01:04;;;;;;;;;15.00;12.00;;;;;16.70;79.75;101005.09;4957983;28;46819;-75
2022/10/14 00:03:30;;;;;;;;;12.33;10.33;;;;;16.79;79.92;101030.88;4960063;28;45212;-74
2022/10/14 00:05:55;;;;;;;;;7.33;5.67;;;;;16.48;80.16;100974.50;4961372;28;45592;-74
2022/10/14 00:08:21;;;;;;;;;6.00;5.00;;;;;16.74;79.95;101022.53;4961564;28;45329;-75
2022/10/14 00:10:46;;;;;;;;;3.67;3.67;;;;;16.57;79.86;101000.28;4960927;28;46294;-74
2022/10/14 00:13:11;;;;;;;;;6.33;6.00;;;;;16.34;80.03;100961.84;4960886;28;45406;-76
2022/10/14 00:15:39;;;;;;;;;4.67;3.33;;;;;16.59;80.13;101003.63;4960900;28;45828;-74
2022/10/14 00:18:05;;;;;;;;;2.00;2.00;;;;;16.77;80.40;101026.72;4960894;28;45511;-73
2022/10/14 00:20:31;;;;;;;;;5.33;4.00;;;;;16.12;80.16;100925.91;4960589;28;45749;-74
2022/10/14 00:22:56;;;;;;;;;6.00;3.00;;;;;16.76;80.57;101028.56;4943398;28;45247;-73
2022/10/14 00:25:22;;;;;;;;;3.00;3.00;;;;;16.63;80.78;100998.75;4959503;28;45424;-74
2022/10/14 00:27:47;;;;;;;;;5.00;4.00;;;;;16.65;80.38;101002.09;4960844;28;45320;-74
2022/10/14 00:30:12;;;;;;;;;5.33;3.67;;;;;16.64;80.61;100993.22;4960809;28;46887;-72
2022/10/14 00:32:38;;;;;;;;;4.33;4.00;;;;;16.68;80.33;101002.59;4960444;28;45422;-73
2022/10/14 00:35:04;;;;;;;;;3.00;3.00;;;;;16.65;80.43;100988.69;4959195;28;45332;-76
2022/10/14 00:37:29;;;;;;;;;4.67;3.67;;;;;16.70;80.54;100995.22;4960617;28;45386;-74
2022/10/14 00:39:54;;;;;;;;;3.00;3.00;;;;;16.39;80.19;100935.31;4960048;28;45576;-74
2022/10/14 00:42:20;;;;;;;;;5.67;5.67;;;;;16.80;80.36;101000.31;4942844;28;45268;-74
2022/10/14 00:44:45;;;;;;;;;3.00;2.67;;;;;16.71;80.49;100978.09;4960150;28;45515;-73
2022/10/14 00:47:11;;;;;;;;;4.00;2.67;;;;;16.80;80.53;100988.75;4960698;28;45263;-74
2022/10/14 00:49:40;;;;;;;;;3.33;3.33;;;;;15.94;80.24;100843.03;4960222;28;46828;-73
2022/10/14 00:52:26;;;;;;;;;2.33;1.67;;;;;16.89;79.98;100988.53;4960013;28;45542;-74
2022/10/14 00:55:07;;;;;;;;;3.00;3.00;;;;;16.90;79.57;100984.00;4941938;28;45328;-75
2022/10/14 00:57:34;;;;;;;;;4.00;3.00;;;;;16.64;79.70;100941.38;4960190;28;45526;-72
2022/10/14 01:00:07;;;;;;;;;2.33;2.33;;;;;16.83;79.75;100983.88;4959768;28;48018;-74
2022/10/14 01:02:33;;;;;;;;;2.00;2.00;;;;;16.66;79.97;100961.69;4959846;28;45458;-75
2022/10/14 01:05:00;;;;;;;;;2.33;2.33;;;;;16.61;80.01;100947.91;4959916;28;45529;-74
2022/10/14 01:07:31;;;;;;;;;3.00;2.00;;;;;16.77;79.93;100978.38;4960335;28;45447;-75
2022/10/14 01:09:59;;;;;;;;;2.33;2.33;;;;;16.82;80.12;100986.72;4959521;28;45971;-72
2022/10/14 01:12:44;;;;;;;;;4.33;3.33;;;;;16.83;80.05;100977.69;4959078;28;45577;-73
2022/10/14 01:15:27;;;;;;;;;3.00;3.00;;;;;16.45;79.92;100909.63;4959325;28;45395;-74
2022/10/14 01:17:57;;;;;;;;;2.00;2.00;;;;;16.84;79.51;100973.97;4960121;28;45414;-76
2022/10/14 01:20:47;;;;;;;;;1.00;1.00;;;;;16.82;79.69;100970.63;4959421;28;46757;-75
2022/10/14 01:23:32;;;;;;;;;4.00;3.00;;;;;16.81;79.85;100977.00;4957708;28;45350;-75
2022/10/14 01:26:39;;;;;;;;;4.00;2.00;;;;;16.85;79.88;100960.38;4959604;28;45355;-73
2022/10/14 01:29:36;;;;;;;;;2.00;2.00;;;;;16.84;79.90;100961.38;4960261;28;45414;-73
2022/10/14 01:32:09;;;;;;;;;3.00;2.67;;;;;16.45;80.15;100889.00;4931742;28;47303;-72
2022/10/14 01:34:43;;;;;;;;;2.00;2.00;;;;;16.45;80.22;100883.63;4959504;28;45457;-72
2022/10/14 01:37:15;;;;;;;;;2.00;2.00;;;;;16.81;80.33;100959.03;4958320;28;45303;-74
2022/10/14 01:39:49;;;;;;;;;3.00;3.00;;;;;16.06;80.04;100833.59;4960352;28;45500;-76
2022/10/14 01:42:38;;;;;;;;;2.00;2.00;;;;;16.79;80.61;100949.50;4959103;28;46118;-72
2022/10/14 01:45:22;;;;;;;;;4.00;3.00;;;;;16.66;80.20;100923.22;4959033;28;45361;-73
2022/10/14 01:47:50;;;;;;;;;2.67;2.67;;;;;16.64;80.33;100931.47;4959292;28;45603;-74
2022/10/14 01:50:19;;;;;;;;;2.00;2.00;;;;;16.69;80.22;100918.38;4959566;28;45431;-73
2022/10/14 01:52:53;;;;;;;;;5.67;4.00;;;;;16.81;80.31;100932.19;4957647;28;47596;-75
2022/10/14 01:55:24;;;;;;;;;5.00;3.67;;;;;16.81;80.38;100942.09;4959148;28;45275;-74
2022/10/14 01:57:52;;;;;;;;;6.33;5.00;;;;;16.35;80.60;100877.66;4959670;28;45575;-73
2022/10/14 02:00:18;;;;;;;;;4.00;4.00;;;;;16.75;80.48;100942.81;4959362;28;45493;-73
2022/10/14 02:02:43;;;;;;;;;6.00;3.33;;;;;15.13;80.47;100666.59;4957341;28;46668;-74
2022/10/14 02:05:26;;;;;;;;;3.00;3.00;;;;;16.59;80.67;100907.00;4957467;28;45488;-76
2022/10/14 02:08:03;;;;;;;;;4.33;4.00;;;;;16.82;80.25;100949.13;4958915;28;45217;-74
2022/10/14 02:10:33;;;;;;;;;5.33;4.67;;;;;16.76;80.61;100925.69;4957808;28;45548;-74
2022/10/14 02:13:13;;;;;;;;;5.00;5.00;;;;;16.81;80.62;100929.50;4957098;28;48394;-73
2022/10/14 02:16:05;;;;;;;;;3.33;3.33;;;;;16.78;80.86;100931.72;4957408;28;46178;-73
2022/10/14 02:18:38;;;;;;;;;7.67;6.00;;;;;16.81;80.71;100932.19;4958899;28;45303;-74
2022/10/14 02:21:38;;;;;;;;;6.67;6.00;;;;;16.62;81.11;100895.09;4959059;28;45338;-73
2022/10/14 02:24:07;;;;;;;;;5.00;5.00;;;;;16.83;80.89;100923.97;4950882;28;48732;-73
2022/10/14 02:26:35;;;;;;;;;7.33;6.33;;;;;16.78;80.99;100929.03;4958351;28;45480;-74
2022/10/14 02:29:03;;;;;;;;;5.00;4.67;;;;;16.72;81.21;100912.63;4958848;28;45492;-74
2022/10/14 02:31:31;;;;;;;;;5.00;5.00;;;;;16.24;81.35;100827.09;4958903;28;45290;-74
2022/10/14 02:34:02;;;;;;;;;7.00;6.00;;;;;16.69;80.69;100896.88;4957324;28;48562;-72
2022/10/14 02:36:28;;;;;;;;;4.67;4.67;;;;;16.91;80.68;100926.59;4940911;28;45403;-74
2022/10/14 02:38:58;;;;;;;;;11.33;9.67;;;;;16.27;80.25;100808.78;4958623;28;45603;-73
2022/10/14 02:41:29;;;;;;;;;8.67;8.67;;;;;16.93;80.52;100913.81;4958715;28;45584;-73
2022/10/14 02:43:54;;;;;;;;;5.33;5.33;;;;;16.88;80.38;100905.47;4958087;28;46319;-75
2022/10/14 02:46:20;;;;;;;;;4.67;4.67;;;;;16.92;80.88;100922.88;4958389;28;45347;-74
2022/10/14 02:48:46;;;;;;;;;5.33;5.33;;;;;16.34;80.68;100819.63;4958598;28;45544;-72
2022/10/14 02:51:11;;;;;;;;;11.00;6.67;;;;;16.74;80.46;100874.88;4958880;28;45426;-77
2022/10/14 02:53:37;;;;;;;;;5.33;3.33;;;;;16.92;80.29;100912.97;4958059;28;58456;-74
2022/10/14 02:56:02;;;;;;;;;7.33;5.67;;;;;16.72;80.76;100866.16;4958210;28;45433;-74
2022/10/14 02:58:28;;;;;;;;;8.33;6.00;;;;;16.93;80.63;100903.06;4958578;28;45414;-75
2022/10/14 03:00:53;;;;;;;;;5.67;5.67;;;;;16.83;81.01;100891.75;4958478;28;45558;-73
2022/10/14 03:03:19;;;;;;;;;6.33;5.33;;;;;16.63;80.61;100851.94;4958258;28;46405;-74
2022/10/14 03:05:44;;;;;;;;;6.67;5.00;;;;;16.97;80.55;100907.88;4956895;28;46059;-73
2022/10/14 03:08:10;;;;;;;;;5.67;4.67;;;;;16.29;80.30;100798.72;4956942;28;45391;-75
2022/10/14 03:10:35;;;;;;;;;7.00;5.00;;;;;16.36;80.17;100806.88;4957247;28;45320;-75
2022/10/14 03:13:00;;;;;;;;;5.33;5.33;;;;;16.93;80.50;100900.38;4958204;28;46602;-75
2022/10/14 03:15:26;;;;;;;;;4.67;4.00;;;;;16.81;80.63;100889.22;4958726;28;45256;-74
2022/10/14 03:17:51;;;;;;;;;4.00;3.33;;;;;16.98;80.86;100906.03;4958308;28;45335;-73
2022/10/14 03:20:17;;;;;;;;;6.33;6.33;;;;;16.90;80.71;100893.53;4958517;28;45355;-74
2022/10/14 03:22:42;;;;;;;;;3.67;2.33;;;;;16.55;80.78;100840.44;4956695;28;47514;-74
2022/10/14 03:25:08;;;;;;;;;6.00;4.00;;;;;17.00;80.71;100902.16;4957769;28;45379;-72
2022/10/14 03:27:33;;;;;;;;;4.33;4.33;;;;;16.99;80.56;100905.84;4958516;28;45235;-73
2022/10/14 03:29:58;;;;;;;;;4.33;3.33;;;;;16.66;80.35;100845.38;4957859;28;48897;-76
2022/10/14 03:32:24;;;;;;;;;3.00;3.00;;;;;16.55;80.40;100838.56;4957543;28;52548;-72
2022/10/14 03:34:49;;;;;;;;;4.00;3.00;;;;;17.08;80.12;100897.72;4957853;28;45351;-73
2022/10/14 03:37:14;;;;;;;;;3.33;3.33;;;;;16.79;80.03;100852.84;4958272;28;45445;-75
2022/10/14 03:39:40;;;;;;;;;4.00;4.00;;;;;16.38;80.13;100791.41;4961397;28;45582;-75
2022/10/14 03:42:05;;;;;;;;;4.33;3.00;;;;;17.12;80.25;100901.72;4959515;28;47514;-74
2022/10/14 03:44:31;;;;;;;;;2.33;2.00;;;;;17.13;79.93;100892.63;4961070;28;45274;-74
2022/10/14 03:46:56;;;;;;;;;9.00;8.33;;;;;17.06;80.04;100891.72;4960852;28;45463;-73
2022/10/14 03:49:22;;;;;;;;;4.67;3.67;;;;;17.09;79.70;100881.44;4961099;28;45221;-74
2022/10/14 03:51:47;;;;;;;;;3.00;3.00;;;;;16.87;79.31;100847.41;4961345;28;45616;-74
2022/10/14 03:54:12;;;;;;;;;3.00;3.00;;;;;17.03;79.43;100874.94;4961343;28;63327;-73
2022/10/14 03:56:37;;;;;;;;;17.67;17.67;;;;;16.98;79.26;100866.56;4963100;28;45405;-72
2022/10/14 03:59:03;;;;;;;;;3.00;3.00;;;;;17.06;79.37;100880.97;4944154;28;45602;-73
2022/10/14 04:01:28;;;;;;;;;2.67;2.67;;;;;16.88;79.45;100851.75;4960974;28;45909;-76
2022/10/14 04:03:54;;;;;;;;;3.33;3.33;;;;;17.08;79.32;100887.81;4960564;28;45296;-74
2022/10/14 04:06:19;;;;;;;;;7.00;4.00;;;;;16.73;78.85;100831.06;4961071;28;45485;-74
2022/10/14 04:08:44;;;;;;;;;2.67;2.00;;;;;16.93;78.76;100868.16;4960965;28;45395;-74
2022/10/14 04:11:09;;;;;;;;;2.33;2.33;;;;;16.95;78.92;100866.13;4960882;28;45519;-73
2022/10/14 04:13:38;;;;;;;;;2.00;2.00;;;;;16.72;78.77;100842.00;4961055;28;45330;-72
2022/10/14 04:16:06;;;;;;;;;6.67;5.00;;;;;17.15;78.80;100902.19;4960868;28;45326;-72
2022/10/14 04:18:31;;;;;;;;;3.25;1.00;;;;;17.07;78.61;100898.75;4960572;28;45260;-74
2022/10/14 04:21:01;;;;;;;;;4.00;3.33;;;;;17.12;78.36;100899.88;4960632;28;46701;-73
2022/10/14 04:23:26;;;;;;;;;2.00;2.00;;;;;17.14;78.61;100900.50;4959119;28;45505;-74
2022/10/14 04:25:52;;;;;;;;;1.33;1.33;;;;;16.61;77.98;100818.22;4961233;28;45532;-74
2022/10/14 04:28:17;;;;;;;;;1.00;1.00;;;;;17.13;77.74;100895.31;4943833;28;45193;-72
2022/10/14 04:30:42;;;;;;;;;2.00;1.00;;;;;17.11;77.41;100890.13;4943402;28;46878;-73
2022/10/14 04:33:08;;;;;;;;;2.67;2.00;;;;;17.10;77.74;100891.16;4960582;28;45286;-74
2022/10/14 04:35:33;;;;;;;;;1.75;1.75;;;;;16.84;77.61;100855.84;4959628;28;45336;-75
2022/10/14 04:37:59;;;;;;;;;1.00;1.00;;;;;16.77;77.57;100831.53;4959762;28;45493;-72
2022/10/14 04:40:25;;;;;;;;;3.00;1.33;;;;;17.05;77.46;100890.03;4960503;28;45280;-74
2022/10/14 04:42:55;;;;;;;;;6.67;6.67;;;;;16.63;77.26;100821.59;4960354;28;45312;-75
2022/10/14 04:45:20;;;;;;;;;1.00;1.00;;;;;16.72;77.23;100850.88;4960921;28;45490;-73
2022/10/14 04:47:45;;;;;;;;;2.00;2.00;;;;;17.00;77.16;100888.72;4960631;28;45627;-75
2022/10/14 04:50:11;;;;;;;;;1.00;1.00;;;;;16.83;77.30;100864.91;4960639;28;45665;-74
2022/10/14 04:52:36;;;;;;;;;2.00;1.00;;;;;16.76;77.13;100842.47;4960029;28;45469;-74
2022/10/14 04:55:02;;;;;;;;;0.00;0.00;;;;;16.98;77.22;100865.75;4960443;28;45317;-73
2022/10/14 04:57:27;;;;;;;;;1.67;1.67;;;;;16.91;77.27;100846.84;4960556;28;45229;-73
2022/10/14 04:59:53;;;;;;;;;0.67;0.67;;;;;16.26;77.01;100748.09;4960352;28;46625;-73
2022/10/14 05:02:18;;;;;;;;;2.00;2.00;;;;;17.02;76.98;100885.88;4958928;28;45336;-73
2022/10/14 05:04:43;;;;;;;;;2.00;2.00;;;;;16.87;76.82;100844.72;4960309;28;45458;-75
2022/10/14 05:07:09;;;;;;;;;0.67;0.67;;;;;16.99;76.98;100875.47;4960665;28;45564;-74
2022/10/14 05:09:34;;;;;;;;;1.00;1.00;;;;;16.93;77.04;100863.63;4959682;28;65533;-73
2022/10/14 05:12:00;;;;;;;;;0.00;0.00;;;;;16.73;77.33;100832.91;4959974;28;45561;-74
2022/10/14 05:14:25;;;;;;;;;1.00;1.00;;;;;16.94;77.24;100872.50;4960053;28;45374;-73
2022/10/14 05:16:50;;;;;;;;;1.00;1.00;;;;;16.94;77.26;100878.72;4942747;28;45485;-73
2022/10/14 05:19:16;;;;;;;;;0.00;0.00;;;;;16.78;77.25;100840.44;4959689;28;57356;-73
2022/10/14 05:21:41;;;;;;;;;3.00;1.00;;;;;16.90;77.35;100881.94;4960015;28;45301;-75
2022/10/14 05:24:06;;;;;;;;;1.33;1.33;;;;;16.61;77.28;100827.09;4958940;28;56691;-76
2022/10/14 05:26:32;;;;;;;;;2.33;1.00;;;;;16.73;77.15;100851.72;4942635;28;45419;-75
2022/10/14 05:28:57;;;;;;;;;1.00;1.00;;;;;16.78;77.23;100853.84;4959612;28;46254;-74
2022/10/14 05:31:22;;;;;;;;;2.33;1.33;;;;;16.79;76.94;100837.56;4957930;28;45404;-75
2022/10/14 05:33:48;;;;;;;;;4.00;1.00;;;;;16.10;76.98;100730.28;4959948;28;45453;-76
2022/10/14 05:36:13;;;;;;;;;0.33;0.33;;;;;16.84;76.97;100856.66;4958954;28;45574;-76
2022/10/14 05:38:38;;;;;;;;;4.00;3.00;;;;;16.34;77.14;100768.66;4960139;28;45401;-73
2022/10/14 05:41:04;;;;;;;;;3.00;3.00;;;;;16.57;76.93;100812.38;4958669;28;45669;-72
2022/10/14 05:43:29;;;;;;;;;2.00;2.00;;;;;16.75;76.92;100830.88;4966952;28;45426;-73
2022/10/14 05:45:55;;;;;;;;;7.33;7.33;;;;;16.50;77.12;100800.72;4979018;28;45331;-75
2022/10/14 05:48:20;;;;;;;;;3.67;2.33;;;;;16.75;77.36;100856.91;4978499;28;46663;-75
2022/10/14 05:50:45;;;;;;;;;2.00;2.00;;;;;16.45;76.87;100792.38;4977074;28;45544;-80
2022/10/14 05:53:11;;;;;;;;;2.00;1.00;;;;;16.65;77.38;100816.88;4976553;28;45346;-74
2022/10/14 05:55:37;;;;;;;;;4.00;3.00;;;;;16.71;77.22;100819.69;4945410;28;45495;-75
2022/10/14 05:58:02;;;;;;;;;4.33;1.00;;;;;16.47;77.22;100785.00;4961938;28;51624;-74
2022/10/14 06:00:28;;;;;;;;;3.50;3.50;;;;;16.85;77.32;100847.59;4977160;28;45393;-78
2022/10/14 06:02:56;;;;;;;;;2.00;2.00;;;;;16.88;77.41;100852.59;4975836;28;45254;-75
2022/10/14 06:05:21;;;;;;;;;3.00;3.00;;;;;16.94;77.14;100875.19;4977835;28;45419;-74
2022/10/14 06:07:47;;;;;;;;;3.67;2.67;;;;;16.74;77.18;100834.59;4976599;28;46563;-76
2022/10/14 06:10:12;;;;;;;;;4.00;3.00;;;;;16.97;77.37;100866.75;4957882;28;45535;-77
2022/10/14 06:12:38;;;;;;;;;3.00;3.00;;;;;16.80;77.06;100838.38;4961215;28;46090;-77
2022/10/14 06:15:04;;;;;;;;;3.00;3.00;;;;;16.77;77.33;100833.38;4944592;28;45575;-76
2022/10/14 06:17:29;;;;;;;;;3.00;3.00;;;;;16.61;77.44;100820.91;4955647;28;46226;-77
2022/10/14 06:19:55;;;;;;;;;2.00;2.00;;;;;16.41;77.59;100788.38;4944454;28;46158;-78
2022/10/14 06:22:21;;;;;;;;;3.67;3.67;;;;;16.72;78.08;100840.16;4974558;28;45478;-79
2022/10/14 06:24:46;;;;;;;;;4.00;3.00;;;;;16.11;77.66;100752.59;4977313;28;45280;-77
2022/10/14 06:27:12;;;;;;;;;4.00;2.00;;;;;16.46;77.77;100802.09;4979524;28;45533;-76
2022/10/14 06:29:37;;;;;;;;;4.33;4.00;;;;;16.02;77.73;100734.91;4982932;28;45299;-77
2022/10/14 06:32:04;;;;;;;;;4.00;4.00;;;;;16.94;77.57;100865.28;4978974;28;45393;-79
2022/10/14 06:34:30;;;;;;;;;4.00;4.00;;;;;16.98;77.24;100868.44;4977286;28;45196;-76
2022/10/14 06:36:55;;;;;;;;;5.33;5.00;;;;;16.60;77.21;100803.97;4975059;28;46662;-76
2022/10/14 06:39:21;;;;;;;;;4.00;4.00;;;;;16.69;77.25;100816.34;4956387;28;45472;-76
2022/10/14 06:41:46;;;;;;;;;4.00;3.33;;;;;17.02;77.05;100864.38;4956895;28;45303;-75
2022/10/14 06:44:14;;;;;;;;;4.67;4.00;;;;;16.79;76.98;100831.34;4959332;28;45429;-77
2022/10/14 06:46:39;;;;;;;;;3.00;3.00;;;;;16.94;76.98;100861.75;4957465;28;46390;-76
2022/10/14 06:49:05;;;;;;;;;3.33;3.33;;;;;17.03;77.10;100866.88;4958764;28;45557;-76
2022/10/14 06:51:30;;;;;;;;;4.67;4.67;;;;;17.05;76.91;100874.75;4959615;28;45428;-76
2022/10/14 06:53:56;;;;;;;;;4.33;3.67;;;;;16.70;77.08;100822.56;4967176;28;45520;-73
2022/10/14 06:56:21;;;;;;;;;4.00;4.00;;;;;17.04;77.08;100889.22;4949644;28;46171;-76
2022/10/14 06:58:46;;;;;;;;;3.67;3.67;;;;;16.84;77.01;100848.59;4939261;28;45456;-76
2022/10/14 07:01:12;;;;;;;;;2.33;2.33;;;;;17.04;76.69;100883.84;4953800;28;45312;-72
2022/10/14 07:03:38;;;;;;;;;2.33;2.33;;;;;16.90;76.64;100858.63;4959513;28;45478;-77
2022/10/14 07:06:07;;;;;;;;;3.00;3.00;;;;;17.06;76.62;100884.50;4944096;28;47045;-75
2022/10/14 07:08:33;;;;;;;;;4.67;3.67;;;;;16.79;76.61;100850.16;4965417;28;45416;-77
2022/10/14 07:10:58;;;;;;;;;9.00;8.33;;;;;17.01;77.12;100890.38;4962138;28;45508;-78
2022/10/14 07:13:24;;;;;;;;;4.00;4.00;;;;;16.96;76.85;100875.84;4961389;28;45437;-76
2022/10/14 07:15:51;;;;;;;;;2.00;2.00;;;;;16.89;76.46;100864.16;4964682;28;46523;-78
2022/10/14 07:18:17;;;;;;;;;4.67;3.00;;;;;16.95;75.94;100874.16;4965383;28;45397;-79
2022/10/14 07:20:42;;;;;;;;;2.33;2.33;;;;;16.71;75.54;100833.09;4964341;28;45435;-77
2022/10/14 07:23:08;;;;;;;;;3.67;3.67;;;;;16.44;75.34;100796.09;4965714;28;45350;-75
2022/10/14 07:25:33;;;;;;;;;2.00;2.00;;;;;17.19;74.55;100908.03;4962614;28;45530;-77
2022/10/14 07:27:59;;;;;;;;;1.00;1.00;;;;;17.19;74.43;100908.84;4961549;28;46004;-74
2022/10/14 07:30:25;;;;;;;;;2.00;2.00;;;;;16.84;74.46;100850.47;4962273;28;45237;-77
2022/10/14 07:32:50;;;;;;;;;3.00;2.00;;;;;16.88;74.81;100857.13;4961082;28;45244;-75
2022/10/14 07:35:17;;;;;;;;;3.00;3.00;;;;;16.89;74.41;100864.16;4961841;28;46208;-76
2022/10/14 07:37:43;;;;;;;;;2.00;2.00;;;;;17.08;74.11;100890.50;4963737;28;45353;-77
2022/10/14 07:40:09;;;;;;;;;6.33;6.33;;;;;17.17;74.09;100910.06;4946370;28;45560;-76
2022/10/14 07:42:34;;;;;;;;;3.00;0.33;;;;;17.29;74.10;100925.56;4969424;28;45493;-76
2022/10/14 07:45:00;;;;;;;;;6.67;6.00;;;;;17.11;74.10;100913.47;4962150;28;46642;-76
2022/10/14 07:47:25;;;;;;;;;4.00;3.00;;;;;16.98;73.68;100884.53;4960505;28;45509;-77
2022/10/14 07:49:51;;;;;;;;;2.00;2.00;;;;;16.30;73.53;100784.28;4962358;28;45419;-78
2022/10/14 07:52:18;;;;;;;;;2.67;2.00;;;;;17.18;73.43;100926.00;4945420;28;45451;-75
2022/10/14 07:54:44;;;;;;;;;1.00;1.00;;;;;16.53;73.16;100811.09;4945561;28;47470;-77
2022/10/14 07:57:10;;;;;;;;;1.00;1.00;;;;;17.28;73.34;100936.50;4962779;28;45548;-78
2022/10/14 07:59:35;;;;;;;;;1.00;1.00;;;;;17.02;73.17;100891.25;4960867;28;45388;-77
2022/10/14 08:02:01;;;;;;;;;0.67;0.67;;;;;17.15;72.87;100915.63;4962624;28;45271;-76
2022/10/14 08:04:26;;;;;;;;;1.00;1.00;;;;;16.71;72.83;100854.59;4960164;28;47638;-78
2022/10/14 08:06:51;;;;;;;;;4.00;3.00;;;;;16.55;72.86;100816.28;4959732;28;45476;-75
2022/10/14 08:09:17;;;;;;;;;3.00;3.00;;;;;16.01;72.54;100739.41;4961341;28;45391;-77
2022/10/14 08:11:43;;;;;;;;;3.00;1.00;;;;;17.23;72.92;100934.34;4961251;28;45406;-75
2022/10/14 08:14:09;;;;;;;;;0.33;0.33;;;;;17.10;72.48;100909.97;4960886;28;45287;-77
2022/10/14 08:16:35;;;;;;;;;2.00;1.00;;;;;16.90;72.09;100887.31;4959547;28;45512;-77
2022/10/14 08:19:05;;;;;;;;;1.00;1.00;;;;;17.36;71.86;100951.69;4960123;28;45408;-77
2022/10/14 08:21:31;;;;;;;;;0.67;0.67;;;;;17.08;72.09;100906.63;4959927;28;45258;-74
2022/10/14 08:23:56;;;;;;;;;2.00;2.00;;;;;17.38;71.53;100955.03;4958782;28;48433;-75
2022/10/14 08:26:35;;;;;;;;;4.00;2.67;;;;;17.23;71.89;100944.28;4959171;28;45379;-76
2022/10/14 08:29:04;;;;;;;;;1.00;1.00;;;;;17.41;71.91;100965.41;4961157;28;45403;-76
2022/10/14 08:31:30;;;;;;;;;3.00;3.00;;;;;16.50;71.72;100808.78;4962003;28;45454;-76
2022/10/14 08:33:55;;;;;;;;;2.00;2.00;;;;;17.30;71.34;100937.97;4960182;28;48512;-77
2022/10/14 08:36:21;;;;;;;;;0.00;0.00;;;;;16.96;71.53;100884.72;4943130;28;45265;-76
2022/10/14 08:38:48;;;;;;;;;2.67;2.67;;;;;17.25;71.38;100940.38;4959857;28;45804;-76
2022/10/14 08:41:16;;;;;;;;;5.00;3.00;;;;;17.39;71.49;100957.53;4959531;28;45515;-76
2022/10/14 08:44:03;;;;;;;;;3.33;0.33;;;;;17.36;71.61;100957.06;4960820;28;45534;-76
2022/10/14 08:46:50;;;;;;;;;3.67;2.33;;;;;17.38;71.91;100949.66;4959833;28;45568;-77
2022/10/14 08:49:33;;;;;;;;;3.67;2.00;;;;;17.31;71.61;100944.19;4961224;28;46599;-78
2022/10/14 08:52:08;;;;;;;;;1.00;1.00;;;;;17.30;71.78;100934.44;4959993;28;45665;-74
2022/10/14 08:54:43;;;;;;;;;2.00;1.00;;;;;17.10;72.01;100891.16;4960992;28;46652;-75
2022/10/14 08:57:19;;;;;;;;;3.00;3.00;;;;;17.37;72.03;100931.84;4963903;28;45256;-78
2022/10/14 08:59:45;;;;;;;;;1.00;1.00;;;;;16.93;71.22;100860.09;4962849;28;45245;-76
2022/10/14 09:02:23;;;;;;;;;1.00;1.00;;;;;16.48;71.12;100778.59;4961745;28;45248;-77
2022/10/14 09:04:48;;;;;;;;;1.00;1.00;;;;;17.43;71.21;100942.72;4962512;28;45770;-76
2022/10/14 09:07:18;;;;;;;;;2.00;2.00;;;;;17.18;71.41;100890.22;4962424;28;45362;-75
2022/10/14 09:09:48;;;;;;;;;2.67;2.67;;;;;16.57;71.84;100774.81;4960691;28;45263;-75
2022/10/14 09:12:19;;;;;;;;;7.00;6.00;;;;;17.42;71.69;100914.19;4960592;28;45341;-74
2022/10/14 09:14:53;;;;;;;;;4.67;4.67;;;;;17.67;71.03;100949.69;4959797;28;45442;-78
2022/10/14 09:17:28;;;;;;;;;1.00;1.00;;;;;17.66;70.80;100948.03;4959865;28;45554;-76
2022/10/14 09:20:12;;;;;;;;;1.67;1.00;;;;;17.73;71.20;100932.84;4960079;28;45209;-77
2022/10/14 09:22:37;;;;;;;;;4.00;3.00;;;;;17.70;71.45;100921.63;4960717;28;45498;-80
2022/10/14 09:25:11;;;;;;;;;1.67;1.00;;;;;17.76;70.81;100920.88;4958385;28;45375;-78
2022/10/14 09:27:37;;;;;;;;;3.00;3.00;;;;;17.48;71.73;100874.97;4959873;28;45532;-81
2022/10/14 09:30:09;;;;;;;;;1.00;1.00;;;;;17.42;71.10;100873.88;4942739;28;45299;-80
2022/10/14 09:32:53;;;;;;;;;11.50;8.50;;;;;17.61;71.30;100907.41;4960511;28;45325;-77
2022/10/14 09:35:28;;;;;;;;;8.67;7.00;;;;;17.69;70.90;100918.09;4958922;28;45533;-78
2022/10/14 09:37:54;;;;;;;;;2.33;2.33;;;;;17.72;71.00;100931.16;4958666;28;45351;-79
2022/10/14 09:40:28;;;;;;;;;3.00;3.00;;;;;17.71;71.45;100929.50;4961320;28;45390;-79
2022/10/14 09:43:03;;;;;;;;;4.67;2.00;;;;;17.72;71.54;100925.78;4961983;28;45489;-79
2022/10/14 09:45:46;;;;;;;;;8.00;6.00;;;;;16.86;71.56;100784.81;4962035;28;48220;-79
2022/10/14 09:48:18;;;;;;;;;2.00;2.00;;;;;17.69;71.88;100919.97;4963797;28;45253;-78
2022/10/14 09:50:54;;;;;;;;;2.00;2.00;;;;;17.64;71.97;100915.94;4959299;28;45295;-79
2022/10/14 09:53:36;;;;;;;;;4.00;3.00;;;;;17.20;72.13;100846.03;4960723;28;45304;-80
2022/10/14 09:56:04;;;;;;;;;4.67;3.00;;;;;17.58;72.25;100921.22;4958478;28;45589;-77
2022/10/14 09:58:53;;;;;;;;;3.00;3.00;;;;;17.33;72.06;100883.03;4958530;28;45861;-75
2022/10/14 10:01:21;;;;;;;;;2.00;2.00;;;;;17.53;72.61;100910.19;4958402;28;45377;-77
2022/10/14 10:03:49;;;;;;;;;4.00;2.00;;;;;17.32;72.53;100871.44;4960738;28;45446;-76
2022/10/14 10:06:27;;;;;;;;;3.67;3.67;;;;;17.11;72.36;100847.16;4959327;28;48219;-75
2022/10/14 10:08:52;;;;;;;;;3.00;3.00;;;;;17.51;72.35;100893.41;4959390;28;45537;-77
2022/10/14 10:11:37;;;;;;;;;4.00;3.00;;;;;17.61;72.52;100907.41;4975312;28;45517;-78
2022/10/14 10:14:23;;;;;;;;;4.00;3.00;;;;;17.81;72.56;100913.91;4958894;28;45788;-79
2022/10/14 10:17:10;;;;;;;;;4.67;4.67;;;;;17.92;71.97;100918.81;4939662;28;48259;-75
2022/10/14 10:19:45;;;;;;;;;4.00;3.00;;;;;17.92;71.80;100901.84;4958249;28;45385;-76
2022/10/14 10:22:30;;;;;;;;;3.33;3.33;;;;;17.99;71.54;100900.06;4940903;28;45494;-77
2022/10/14 10:25:05;;;;;;;;;5.00;2.33;;;;;18.03;71.19;100905.94;4957664;28;45543;-76
2022/10/14 10:27:35;;;;;;;;;3.67;3.33;;;;;18.07;70.98;100909.91;4957768;28;45666;-77
2022/10/14 10:30:26;;;;;;;;;3.00;3.00;;;;;18.08;71.37;100914.25;4959098;28;45473;-77
2022/10/14 10:33:13;;;;;;;;;5.00;3.33;;;;;18.14;71.18;100897.34;4959911;28;45541;-76
2022/10/14 10:35:51;;;;;;;;;2.33;2.33;;;;;18.15;70.75;100888.25;4959437;28;45243;-78
2022/10/14 10:38:40;;;;;;;;;6.00;6.00;;;;;18.19;70.58;100892.22;4959164;28;45702;-78
2022/10/14 10:41:24;;;;;;;;;2.00;0.67;;;;;18.11;70.46;100873.50;4959121;28;45221;-78
2022/10/14 10:44:05;;;;;;;;;3.00;3.00;;;;;18.29;70.09;100894.63;4958997;28;45568;-77
2022/10/14 10:46:59;;;;;;;;;3.67;3.67;;;;;17.89;70.20;100803.53;4959600;28;45218;-77
2022/10/14 10:49:57;;;;;;;;;3.00;3.00;;;;;18.48;69.63;100884.06;4960709;28;45749;-78
2022/10/14 10:52:29;;;;;;;;;3.33;3.33;;;;;16.19;68.67;100505.75;4958757;28;45402;-75
2022/10/14 10:54:57;;;;;;;;;1.00;1.00;;;;;18.46;68.76;100874.50;4960492;28;45490;-74
2022/10/14 10:58:05;;;;;;;;;2.00;2.00;;;;;18.38;68.58;100853.91;4959740;28;45460;-78
2022/10/14 11:00:45;;;;;;;;;1.00;1.00;;;;;18.44;68.71;100841.56;4928521;28;46509;-78
2022/10/14 11:03:52;;;;;;;;;2.67;2.67;;;;;18.52;68.52;100836.03;4958329;28;45292;-77
2022/10/14 11:12:37;;;;;;;;;4.67;3.00;;;;;18.48;69.53;100835.59;4959092;28;45805;-77
2022/10/14 11:15:23;;;;;;;;;3.00;3.00;;;;;18.09;69.41;100778.69;4959856;28;45307;-75
2022/10/14 11:18:06;;;;;;;;;8.67;7.67;;;;;18.52;70.09;100861.09;4959441;28;45618;-77
2022/10/14 11:20:35;;;;;;;;;2.67;2.00;;;;;18.54;70.33;100844.75;4959873;28;45470;-76
2022/10/14 11:23:06;;;;;;;;;4.67;3.33;;;;;18.52;70.23;100839.56;4959328;28;46356;-77
2022/10/14 11:25:32;;;;;;;;;3.67;2.33;;;;;18.52;70.60;100836.03;4962700;28;45478;-78
2022/10/14 11:28:25;;;;;;;;;8.33;8.33;;;;;18.48;70.55;100824.81;4962232;28;45338;-77
2022/10/14 11:31:18;;;;;;;;;4.33;3.33;;;;;18.13;70.48;100758.44;4959091;28;45445;-78
2022/10/14 11:33:55;;;;;;;;;3.67;2.67;;;;;17.92;70.76;100719.78;4958419;28;46612;-76
2022/10/14 11:36:27;;;;;;;;;4.00;4.00;;;;;18.51;70.79;100819.06;4957239;28;45998;-77
2022/10/14 11:39:08;;;;;;;;;8.33;6.00;;;;;18.47;70.91;100807.00;4958675;28;45350;-75
2022/10/14 11:41:57;;;;;;;;;8.33;5.33;;;;;18.51;70.81;100802.91;4958625;28;45370;-79
2022/10/14 11:44:37;;;;;;;;;3.00;1.00;;;;;18.36;69.16;100804.81;4957904;28;46607;-77